Crescent Valley, Washington
Current Conditions -  °F | °C
As of 11:53 AM on Thursday 29 Jan 2015 (Local Time) from KTIW Reporting Station
Few Clouds Few Clouds  
Wind Chill: 45°   Ceiling: Unl
Heat Index: 48°   Visibility: 10mi
Dew Point: 40°   Wind: 6mph
Humidity: 74%   Direction: NA
Pressure: 30.35"   Gusts: NA
Location:  47.2986°N, 122.616°W
Report Text: KTIW 291953Z VRB05KT 10SM FEW007 09/04 A3035 RMK AO2 SLP278 T00890044
Loading
Personal Weather Stations






























Interactive Weather Map New forecast layout! Learn more

10-Day Weather Forecast

Advertisements
Track Severe Weather on mobile